createdAt,value
2023-02-19T08:33:52.691Z,94850.00
2023-02-19T08:34:04.024Z,94848.00
2023-02-19T08:34:15.606Z,94850.00
2023-02-19T08:34:26.935Z,94852.00
2023-02-19T08:34:38.524Z,94852.00
2023-02-19T08:34:49.852Z,94852.00
2023-02-19T08:35:01.451Z,94850.00
2023-02-19T08:35:12.793Z,94850.00
2023-02-19T08:35:24.361Z,94850.00
2023-02-19T08:35:35.697Z,94852.00
2023-02-19T08:35:47.281Z,94850.00
2023-02-19T08:35:58.605Z,94852.00
2023-02-19T08:36:10.183Z,94854.00
2023-02-19T08:36:21.505Z,94854.00
2023-02-19T08:36:33.113Z,94854.00
2023-02-19T08:36:44.438Z,94852.00
2023-02-19T08:36:56.033Z,94854.00
2023-02-19T08:37:07.365Z,94856.00
2023-02-19T08:37:18.955Z,94856.00
2023-02-19T08:37:30.294Z,94856.00
2023-02-19T08:37:41.873Z,94856.00
2023-02-19T08:37:53.209Z,94854.00
2023-02-19T08:38:04.806Z,94856.00
2023-02-19T08:38:16.156Z,94856.00
2023-02-19T08:38:27.742Z,94856.00
2023-02-19T08:38:39.098Z,94856.00
2023-02-19T08:38:50.692Z,94852.00
2023-02-19T08:39:02.074Z,94854.00
2023-02-19T08:39:13.681Z,94856.00
2023-02-19T08:39:25.010Z,94856.00
2023-02-19T08:39:36.590Z,94852.00
2023-02-19T08:39:47.921Z,94854.00
2023-02-19T08:39:59.514Z,94854.00
2023-02-19T08:40:10.864Z,94854.00
2023-02-19T08:40:22.453Z,94854.00
2023-02-19T08:40:33.792Z,94854.00
2023-02-19T08:40:46.298Z,94852.00
2023-02-19T08:40:55.464Z,94852.00
2023-02-19T08:41:07.085Z,94852.00
2023-02-19T08:41:18.436Z,94852.00
2023-02-19T08:41:30.026Z,94852.00
2023-02-19T08:41:41.361Z,94850.00
2023-02-19T08:41:52.965Z,94850.00
2023-02-19T08:42:04.286Z,94850.00
2023-02-19T08:42:15.896Z,94850.00
2023-02-19T08:42:27.227Z,94850.00
2023-02-19T08:42:38.802Z,94850.00
2023-02-19T08:42:50.140Z,94848.00
2023-02-19T08:43:01.727Z,94848.00
2023-02-19T08:43:13.055Z,94848.00
2023-02-19T08:43:24.644Z,94848.00
2023-02-19T08:43:35.987Z,94850.00
2023-02-19T08:43:47.547Z,94850.00
2023-02-19T08:43:58.872Z,94852.00
2023-02-19T08:44:10.497Z,94850.00
2023-02-19T08:44:21.816Z,94850.00
2023-02-19T08:44:33.395Z,94856.00
2023-02-19T08:44:44.725Z,94856.00
2023-02-19T08:44:56.457Z,94854.00
2023-02-19T08:45:07.778Z,94854.00
2023-02-19T08:45:19.395Z,94856.00
2023-02-19T08:45:30.714Z,94854.00
2023-02-19T08:45:42.335Z,94856.00
2023-02-19T08:45:53.781Z,94856.00
2023-02-19T08:46:05.403Z,94854.00
2023-02-19T08:46:16.764Z,94854.00
2023-02-19T08:46:28.358Z,94856.00
2023-02-19T08:46:39.697Z,94854.00
2023-02-19T08:46:51.317Z,94854.00
2023-02-19T08:47:02.672Z,94854.00
2023-02-19T08:47:14.250Z,94856.00
2023-02-19T08:47:25.589Z,94854.00
2023-02-19T08:47:37.165Z,94854.00
2023-02-19T08:47:48.506Z,94856.00
2023-02-19T08:48:00.124Z,94854.00
2023-02-19T08:48:11.423Z,94854.00
2023-02-19T08:48:23.002Z,94854.00
2023-02-19T08:48:34.330Z,94854.00
2023-02-19T08:48:45.906Z,94852.00
2023-02-19T08:48:57.225Z,94852.00
2023-02-19T08:49:08.803Z,94854.00
2023-02-19T08:49:20.126Z,94850.00
2023-02-19T08:49:31.730Z,94850.00
2023-02-19T08:49:43.036Z,94848.00
2023-02-19T08:49:54.654Z,94850.00
2023-02-19T08:50:05.996Z,94848.00
2023-02-19T08:50:17.590Z,94844.00
2023-02-19T08:50:28.929Z,94850.00
2023-02-19T08:50:40.526Z,94848.00
2023-02-19T08:50:51.868Z,94844.00
2023-02-19T08:51:03.477Z,94848.00
2023-02-19T08:51:15.161Z,94846.00
2023-02-19T08:51:26.893Z,94842.00
2023-02-19T08:51:38.258Z,94842.00
2023-02-19T08:51:49.833Z,94844.00
2023-02-19T08:52:01.158Z,94842.00
2023-02-19T08:52:12.731Z,94840.00
2023-02-19T08:52:24.068Z,94842.00
2023-02-19T08:52:35.649Z,94840.00
2023-02-19T08:52:46.981Z,94842.00
2023-02-19T08:52:58.562Z,94844.00
2023-02-19T08:53:09.910Z,94840.00
2023-02-19T08:53:21.499Z,94842.00
2023-02-19T08:53:32.896Z,94844.00
2023-02-19T08:53:44.457Z,94844.00
2023-02-19T08:53:55.789Z,94844.00
2023-02-19T08:54:07.376Z,94846.00
2023-02-19T08:54:18.718Z,94848.00
2023-02-19T08:54:30.309Z,94846.00
2023-02-19T08:54:41.629Z,94850.00
2023-02-19T08:54:53.328Z,94852.00
2023-02-19T08:55:04.662Z,94852.00
2023-02-19T08:55:16.431Z,94852.00
2023-02-19T08:55:27.837Z,94852.00
2023-02-19T08:55:39.527Z,94854.00
2023-02-19T08:55:50.832Z,94854.00
2023-02-19T08:56:02.465Z,94856.00
2023-02-19T08:56:13.800Z,94856.00
2023-02-19T08:56:25.387Z,94860.00
2023-02-19T08:56:36.694Z,94858.00
2023-02-19T08:56:48.273Z,94856.00
2023-02-19T08:56:59.589Z,94856.00
2023-02-19T08:57:11.225Z,94860.00
2023-02-19T08:57:22.553Z,94860.00
2023-02-19T08:57:34.131Z,94858.00
2023-02-19T08:57:45.444Z,94860.00
2023-02-19T08:57:57.030Z,94858.00
2023-02-19T08:58:08.364Z,94858.00
2023-02-19T08:58:19.948Z,94860.00
2023-02-19T08:58:31.286Z,94856.00
2023-02-19T08:58:42.888Z,94854.00
2023-02-19T08:58:54.255Z,94854.00
2023-02-19T08:59:05.869Z,94854.00
2023-02-19T08:59:17.204Z,94852.00
2023-02-19T08:59:28.819Z,94852.00
2023-02-19T08:59:40.157Z,94852.00
2023-02-19T08:59:51.759Z,94850.00
2023-02-19T09:00:03.089Z,94852.00
2023-02-19T09:00:14.676Z,94850.00
2023-02-19T09:00:25.998Z,94848.00
2023-02-19T09:00:37.568Z,94850.00
2023-02-19T09:00:48.901Z,94848.00
2023-02-19T09:01:00.540Z,94850.00
2023-02-19T09:01:12.329Z,94850.00
2023-02-19T09:01:24.107Z,94850.00
2023-02-19T09:01:35.451Z,94850.00
2023-02-19T09:01:47.097Z,94850.00
2023-02-19T09:01:58.450Z,94850.00
2023-02-19T09:02:10.053Z,94850.00
2023-02-19T09:02:21.405Z,94852.00
2023-02-19T09:02:32.989Z,94848.00
2023-02-19T09:02:44.310Z,94850.00
2023-02-19T09:02:55.888Z,94858.00
2023-02-19T09:03:07.213Z,94854.00
2023-02-19T09:03:18.801Z,94856.00
2023-02-19T09:03:30.153Z,94854.00
2023-02-19T09:03:41.741Z,94854.00
2023-02-19T09:03:53.146Z,94856.00
2023-02-19T09:04:04.747Z,94856.00
2023-02-19T09:04:16.117Z,94854.00
2023-02-19T09:04:27.732Z,94856.00
2023-02-19T09:04:39.048Z,94856.00
2023-02-19T09:04:50.650Z,94856.00
2023-02-19T09:05:01.980Z,94858.00
2023-02-19T09:05:13.564Z,94856.00
2023-02-19T09:05:24.892Z,94856.00
2023-02-19T09:05:36.490Z,94858.00
2023-02-19T09:05:47.836Z,94856.00
2023-02-19T09:05:59.445Z,94854.00
2023-02-19T09:06:11.143Z,94856.00
2023-02-19T09:06:22.836Z,94856.00
2023-02-19T09:06:34.180Z,94854.00
2023-02-19T09:06:45.761Z,94854.00
2023-02-19T09:06:57.082Z,94856.00
2023-02-19T09:07:08.680Z,94852.00
2023-02-19T09:07:20.004Z,94854.00
2023-02-19T09:07:31.601Z,94852.00
2023-02-19T09:07:42.940Z,94850.00
2023-02-19T09:07:54.520Z,94848.00
2023-02-19T09:08:05.850Z,94858.00
2023-02-19T09:08:17.440Z,94854.00
2023-02-19T09:08:28.761Z,94854.00
2023-02-19T09:08:40.357Z,94850.00
2023-02-19T09:08:51.713Z,94852.00
2023-02-19T09:09:03.316Z,94848.00
2023-02-19T09:09:14.644Z,94850.00
2023-02-19T09:09:26.215Z,94850.00
2023-02-19T09:09:37.583Z,94848.00
2023-02-19T09:09:49.164Z,94848.00
2023-02-19T09:10:00.506Z,94846.00
2023-02-19T09:10:12.092Z,94850.00
2023-02-19T09:10:23.472Z,94846.00
2023-02-19T09:10:35.034Z,94848.00
2023-02-19T09:10:46.362Z,94848.00
2023-02-19T09:10:57.931Z,94848.00
2023-02-19T09:11:09.669Z,94850.00
2023-02-19T09:11:21.571Z,94850.00
2023-02-19T09:11:32.906Z,94852.00
2023-02-19T09:11:44.480Z,94852.00
2023-02-19T09:11:55.799Z,94852.00
2023-02-19T09:12:07.377Z,94856.00
2023-02-19T09:12:18.701Z,94856.00
2023-02-19T09:12:30.294Z,94856.00
2023-02-19T09:12:41.633Z,94856.00
2023-02-19T09:12:53.232Z,94860.00
2023-02-19T09:13:04.554Z,94858.00
2023-02-19T09:13:16.161Z,94860.00
2023-02-19T09:13:27.512Z,94858.00
2023-02-19T09:13:39.148Z,94862.00
2023-02-19T09:13:50.470Z,94864.00
2023-02-19T09:14:02.066Z,94864.00
2023-02-19T09:14:13.390Z,94860.00
2023-02-19T09:14:25.015Z,94864.00
2023-02-19T09:14:36.331Z,94864.00
2023-02-19T09:14:47.945Z,94864.00
2023-02-19T09:14:59.287Z,94862.00
2023-02-19T09:15:10.881Z,94858.00
2023-02-19T09:15:22.198Z,94862.00
2023-02-19T09:15:33.830Z,94860.00
2023-02-19T09:15:45.200Z,94862.00
2023-02-19T09:15:56.842Z,94858.00
2023-02-19T09:16:08.300Z,94860.00
2023-02-19T09:16:19.869Z,94858.00
2023-02-19T09:16:31.214Z,94856.00
2023-02-19T09:16:42.811Z,94858.00
2023-02-19T09:16:54.161Z,94856.00
2023-02-19T09:17:05.739Z,94858.00
2023-02-19T09:17:17.101Z,94856.00
2023-02-19T09:17:28.711Z,94856.00
2023-02-19T09:17:40.079Z,94858.00
2023-02-19T09:17:51.683Z,94856.00
2023-02-19T09:18:02.997Z,94854.00
2023-02-19T09:18:14.610Z,94852.00
2023-02-19T09:18:25.973Z,94856.00
2023-02-19T09:18:37.510Z,94856.00
2023-02-19T09:18:48.831Z,94856.00
2023-02-19T09:19:00.402Z,94854.00
2023-02-19T09:19:11.735Z,94854.00
2023-02-19T09:19:23.352Z,94854.00
2023-02-19T09:19:34.735Z,94854.00
2023-02-19T09:19:46.306Z,94852.00
2023-02-19T09:19:57.677Z,94852.00
2023-02-19T09:20:09.297Z,94850.00
2023-02-19T09:20:20.617Z,94848.00
2023-02-19T09:20:32.190Z,94848.00
2023-02-19T09:20:43.533Z,94852.00
2023-02-19T09:20:55.133Z,94852.00
2023-02-19T09:21:06.456Z,94850.00
2023-02-19T09:21:18.031Z,94850.00
2023-02-19T09:21:29.357Z,94850.00
2023-02-19T09:21:40.947Z,94852.00
2023-02-19T09:21:52.289Z,94850.00
2023-02-19T09:22:03.887Z,94848.00
2023-02-19T09:22:15.242Z,94848.00
2023-02-19T09:22:26.826Z,94846.00
2023-02-19T09:22:38.150Z,94846.00
2023-02-19T09:22:49.752Z,94846.00
2023-02-19T09:23:01.106Z,94848.00
2023-02-19T09:23:12.696Z,94846.00
2023-02-19T09:23:24.036Z,94844.00
2023-02-19T09:23:35.609Z,94848.00
2023-02-19T09:23:46.917Z,94848.00
2023-02-19T09:23:58.482Z,94850.00
2023-02-19T09:24:09.833Z,94850.00
2023-02-19T09:24:21.394Z,94846.00
2023-02-19T09:24:32.726Z,94846.00
2023-02-19T09:24:44.342Z,94850.00
2023-02-19T09:24:55.666Z,94848.00
2023-02-19T09:25:07.273Z,94846.00
2023-02-19T09:25:18.642Z,94846.00
2023-02-19T09:25:30.217Z,94848.00
2023-02-19T09:25:41.549Z,94846.00
2023-02-19T09:25:53.147Z,94846.00
2023-02-19T09:26:04.481Z,94846.00
2023-02-19T09:26:16.093Z,94844.00
2023-02-19T09:26:27.435Z,94844.00
2023-02-19T09:26:39.011Z,94844.00
2023-02-19T09:26:50.337Z,94846.00
2023-02-19T09:27:01.905Z,94842.00
2023-02-19T09:27:13.320Z,94844.00
2023-02-19T09:27:24.902Z,94844.00
2023-02-19T09:27:36.253Z,94842.00
2023-02-19T09:27:47.880Z,94844.00
2023-02-19T09:27:59.227Z,94840.00
2023-02-19T09:28:10.836Z,94844.00
2023-02-19T09:28:22.167Z,94844.00
2023-02-19T09:28:33.748Z,94840.00
2023-02-19T09:28:45.084Z,94838.00
2023-02-19T09:28:56.762Z,94840.00
2023-02-19T09:29:08.090Z,94840.00
2023-02-19T09:29:19.656Z,94838.00
2023-02-19T09:29:31.009Z,94836.00
2023-02-19T09:29:42.595Z,94836.00
2023-02-19T09:29:53.948Z,94833.00
2023-02-19T09:30:05.657Z,94834.00
2023-02-19T09:30:17.090Z,94833.00
2023-02-19T09:30:28.678Z,94834.00
2023-02-19T09:30:40.083Z,94834.00
2023-02-19T09:30:51.713Z,94834.00
2023-02-19T09:31:03.040Z,94834.00
2023-02-19T09:31:15.112Z,94833.00
2023-02-19T09:31:26.997Z,94833.00
2023-02-19T09:31:38.481Z,94834.00
2023-02-19T09:31:50.144Z,94833.00
2023-02-19T09:32:01.525Z,94834.00
2023-02-19T09:32:13.225Z,94833.00
2023-02-19T09:32:26.786Z,94833.00
2023-02-19T09:32:36.638Z,94833.00
2023-02-19T09:32:48.227Z,94834.00
2023-02-19T09:32:59.571Z,94834.00
2023-02-19T09:33:11.164Z,94836.00
2023-02-19T09:33:22.528Z,94834.00
2023-02-19T09:33:34.099Z,94834.00
2023-02-19T09:33:45.441Z,94834.00
2023-02-19T09:33:57.034Z,94836.00
2023-02-19T09:34:08.364Z,94834.00
2023-02-19T09:34:19.954Z,94834.00
2023-02-19T09:34:31.326Z,94836.00
2023-02-19T09:34:42.890Z,94836.00
2023-02-19T09:34:54.241Z,94836.00
2023-02-19T09:35:05.838Z,94836.00
2023-02-19T09:35:17.209Z,94836.00
2023-02-19T09:35:28.810Z,94836.00
2023-02-19T09:35:40.137Z,94838.00
2023-02-19T09:35:51.727Z,94838.00
2023-02-19T09:36:03.050Z,94836.00
2023-02-19T09:36:14.685Z,94840.00
2023-02-19T09:36:25.994Z,94842.00
2023-02-19T09:36:37.564Z,94840.00
2023-02-19T09:36:48.897Z,94842.00
2023-02-19T09:37:00.475Z,94842.00
2023-02-19T09:37:11.822Z,94842.00
2023-02-19T09:37:23.428Z,94844.00
2023-02-19T09:37:34.783Z,94844.00
2023-02-19T09:37:46.373Z,94844.00
2023-02-19T09:37:57.712Z,94844.00
2023-02-19T09:38:09.326Z,94842.00
2023-02-19T09:38:20.655Z,94844.00
2023-02-19T09:38:32.232Z,94842.00
2023-02-19T09:38:43.562Z,94846.00
2023-02-19T09:38:55.163Z,94844.00
2023-02-19T09:39:06.526Z,94842.00
2023-02-19T09:39:18.101Z,94842.00
2023-02-19T09:39:29.431Z,94842.00
2023-02-19T09:39:41.026Z,94844.00
2023-02-19T09:39:52.351Z,94842.00
2023-02-19T09:40:03.933Z,94840.00
2023-02-19T09:40:15.274Z,94840.00
2023-02-19T09:40:26.861Z,94842.00
2023-02-19T09:40:38.191Z,94842.00
2023-02-19T09:40:49.790Z,94840.00
2023-02-19T09:41:01.141Z,94838.00
2023-02-19T09:41:13.071Z,94840.00
2023-02-19T09:41:24.767Z,94840.00
2023-02-19T09:41:36.110Z,94838.00
2023-02-19T09:41:47.693Z,94834.00
2023-02-19T09:41:59.022Z,94836.00
2023-02-19T09:42:10.623Z,94833.00
2023-02-19T09:42:21.949Z,94836.00
2023-02-19T09:42:33.553Z,94833.00
2023-02-19T09:42:44.912Z,94836.00
2023-02-19T09:42:56.485Z,94833.00
2023-02-19T09:43:07.825Z,94833.00
2023-02-19T09:43:19.426Z,94834.00
2023-02-19T09:43:30.750Z,94833.00
2023-02-19T09:43:42.321Z,94834.00
2023-02-19T09:43:53.649Z,94836.00
2023-02-19T09:44:05.228Z,94833.00
2023-02-19T09:44:16.577Z,94836.00
2023-02-19T09:44:28.174Z,94836.00
2023-02-19T09:44:39.505Z,94836.00
2023-02-19T09:44:51.117Z,94834.00
2023-02-19T09:45:02.485Z,94836.00
2023-02-19T09:45:14.057Z,94840.00
2023-02-19T09:45:25.368Z,94838.00
2023-02-19T09:45:36.968Z,94840.00
2023-02-19T09:45:48.298Z,94840.00
2023-02-19T09:45:59.910Z,94842.00
2023-02-19T09:46:11.251Z,94840.00
2023-02-19T09:46:22.887Z,94842.00
2023-02-19T09:46:34.353Z,94842.00
2023-02-19T09:46:45.965Z,94842.00
2023-02-19T09:46:57.295Z,94840.00
2023-02-19T09:47:08.882Z,94842.00
2023-02-19T09:47:20.197Z,94840.00
2023-02-19T09:47:31.776Z,94842.00
2023-02-19T09:47:43.129Z,94842.00
2023-02-19T09:47:54.716Z,94840.00
2023-02-19T09:48:06.025Z,94838.00
2023-02-19T09:48:17.613Z,94840.00
2023-02-19T09:48:28.945Z,94840.00
2023-02-19T09:48:40.531Z,94838.00
2023-02-19T09:48:51.874Z,94838.00
2023-02-19T09:49:03.486Z,94836.00
2023-02-19T09:49:14.825Z,94836.00
2023-02-19T09:49:26.407Z,94838.00
2023-02-19T09:49:37.734Z,94838.00
2023-02-19T09:49:49.314Z,94836.00
2023-02-19T09:50:00.636Z,94836.00
2023-02-19T09:50:12.243Z,94836.00
2023-02-19T09:50:23.577Z,94834.00
2023-02-19T09:50:35.160Z,94836.00
2023-02-19T09:50:46.486Z,94836.00
2023-02-19T09:50:58.072Z,94836.00
2023-02-19T09:51:09.713Z,94834.00
2023-02-19T09:51:21.461Z,94833.00
2023-02-19T09:51:32.804Z,94833.00
2023-02-19T09:51:44.417Z,94833.00
2023-02-19T09:51:55.747Z,94836.00
2023-02-19T09:52:07.342Z,94833.00
2023-02-19T09:52:18.686Z,94834.00
2023-02-19T09:52:30.296Z,94834.00
2023-02-19T09:52:41.659Z,94833.00
2023-02-19T09:52:53.253Z,94833.00
2023-02-19T09:53:04.589Z,94831.00
2023-02-19T09:53:16.191Z,94833.00
2023-02-19T09:53:27.521Z,94829.00
2023-02-19T09:53:39.111Z,94834.00
2023-02-19T09:53:50.443Z,94833.00
2023-02-19T09:54:02.023Z,94833.00
2023-02-19T09:54:13.357Z,94831.00
2023-02-19T09:54:24.930Z,94829.00
2023-02-19T09:54:36.275Z,94829.00
2023-02-19T09:54:47.909Z,94834.00
2023-02-19T09:54:59.210Z,94833.00
2023-02-19T09:55:10.802Z,94833.00
2023-02-19T09:55:22.129Z,94833.00
2023-02-19T09:55:33.705Z,94834.00
2023-02-19T09:55:45.017Z,94834.00
2023-02-19T09:55:56.669Z,94833.00
2023-02-19T09:56:07.973Z,94834.00
2023-02-19T09:56:19.591Z,94833.00
2023-02-19T09:56:30.924Z,94831.00
2023-02-19T09:56:42.501Z,94829.00
2023-02-19T09:56:53.933Z,94829.00
2023-02-19T09:57:05.715Z,94833.00
2023-02-19T09:57:17.149Z,94831.00
2023-02-19T09:57:28.930Z,94833.00
2023-02-19T09:57:40.254Z,94831.00
2023-02-19T09:57:51.839Z,94829.00
2023-02-19T09:58:03.173Z,94829.00
2023-02-19T09:58:14.745Z,94829.00
2023-02-19T09:58:26.090Z,94827.00
2023-02-19T09:58:37.665Z,94829.00
2023-02-19T09:58:48.985Z,94827.00
2023-02-19T09:59:00.573Z,94827.00
2023-02-19T09:59:11.888Z,94827.00
2023-02-19T09:59:23.456Z,94825.00
2023-02-19T09:59:34.781Z,94825.00
2023-02-19T09:59:46.377Z,94827.00
2023-02-19T09:59:57.716Z,94825.00
2023-02-19T10:00:10.738Z,94825.00
2023-02-19T10:00:20.076Z,94827.00
2023-02-19T10:00:31.662Z,94825.00
2023-02-19T10:00:43.013Z,94827.00
2023-02-19T10:00:54.574Z,94827.00
2023-02-19T10:01:05.903Z,94825.00
2023-02-19T10:01:17.630Z,94825.00
2023-02-19T10:01:28.942Z,94825.00
2023-02-19T10:01:40.584Z,94825.00
2023-02-19T10:01:51.987Z,94825.00
2023-02-19T10:02:03.548Z,94825.00
2023-02-19T10:02:14.883Z,94825.00
2023-02-19T10:02:26.502Z,94825.00
2023-02-19T10:02:37.837Z,94827.00
2023-02-19T10:02:49.423Z,94827.00
2023-02-19T10:03:00.811Z,94823.00
2023-02-19T10:03:12.453Z,94827.00
2023-02-19T10:03:23.843Z,94827.00
2023-02-19T10:03:35.450Z,94827.00
2023-02-19T10:03:46.769Z,94827.00
2023-02-19T10:03:58.345Z,94825.00
2023-02-19T10:04:09.667Z,94825.00
2023-02-19T10:04:21.272Z,94827.00
2023-02-19T10:04:32.594Z,94827.00
2023-02-19T10:04:44.310Z,94827.00
2023-02-19T10:04:55.685Z,94827.00
2023-02-19T10:05:07.320Z,94827.00
2023-02-19T10:05:18.706Z,94831.00
2023-02-19T10:05:30.316Z,94831.00
2023-02-19T10:05:41.661Z,94829.00
2023-02-19T10:05:53.270Z,94829.00
2023-02-19T10:06:04.605Z,94829.00
2023-02-19T10:06:16.200Z,94831.00
2023-02-19T10:06:27.551Z,94829.00
2023-02-19T10:06:39.136Z,94829.00
2023-02-19T10:06:50.464Z,94831.00
2023-02-19T10:07:02.075Z,94831.00
2023-02-19T10:07:13.419Z,94833.00
2023-02-19T10:07:25.014Z,94831.00
2023-02-19T10:07:36.351Z,94831.00
2023-02-19T10:07:47.943Z,94831.00
2023-02-19T10:07:59.282Z,94831.00
2023-02-19T10:08:10.864Z,94831.00
2023-02-19T10:08:22.197Z,94829.00
2023-02-19T10:08:33.819Z,94833.00
2023-02-19T10:08:45.141Z,94831.00
2023-02-19T10:08:56.724Z,94831.00
2023-02-19T10:09:08.066Z,94833.00
2023-02-19T10:09:19.657Z,94829.00
2023-02-19T10:09:30.967Z,94827.00
2023-02-19T10:09:42.542Z,94829.00
2023-02-19T10:09:53.944Z,94833.00
2023-02-19T10:10:05.532Z,94831.00
2023-02-19T10:10:17.797Z,94831.00
2023-02-19T10:10:27.007Z,94831.00
2023-02-19T10:10:38.589Z,94829.00
2023-02-19T10:10:49.919Z,94831.00
2023-02-19T10:11:01.496Z,94827.00
2023-02-19T10:11:13.304Z,94831.00
2023-02-19T10:11:24.995Z,94829.00
2023-02-19T10:11:36.345Z,94827.00
2023-02-19T10:11:47.930Z,94825.00
2023-02-19T10:11:59.270Z,94825.00
2023-02-19T10:12:10.853Z,94825.00
2023-02-19T10:12:22.207Z,94827.00
2023-02-19T10:12:33.795Z,94823.00
2023-02-19T10:12:45.118Z,94823.00
2023-02-19T10:12:56.728Z,94823.00
2023-02-19T10:13:08.093Z,94821.00
2023-02-19T10:13:19.702Z,94819.00
2023-02-19T10:13:31.024Z,94819.00
2023-02-19T10:13:42.618Z,94817.00
2023-02-19T10:13:53.977Z,94817.00
2023-02-19T10:14:05.569Z,94819.00
2023-02-19T10:14:16.916Z,94817.00
2023-02-19T10:14:28.621Z,94815.00
2023-02-19T10:14:39.936Z,94817.00
2023-02-19T10:14:51.549Z,94817.00
2023-02-19T10:15:02.933Z,94815.00
2023-02-19T10:15:14.505Z,94815.00
2023-02-19T10:15:25.842Z,94815.00
2023-02-19T10:15:37.468Z,94813.00
2023-02-19T10:15:48.840Z,94815.00
2023-02-19T10:16:00.445Z,94817.00
2023-02-19T10:16:11.882Z,94817.00
2023-02-19T10:16:23.470Z,94817.00
2023-02-19T10:16:34.794Z,94815.00
2023-02-19T10:16:46.387Z,94819.00
2023-02-19T10:16:57.711Z,94817.00
2023-02-19T10:17:09.317Z,94815.00
2023-02-19T10:17:20.644Z,94817.00
2023-02-19T10:17:32.240Z,94817.00
2023-02-19T10:17:43.554Z,94817.00
2023-02-19T10:17:55.144Z,94823.00
2023-02-19T10:18:06.474Z,94823.00
2023-02-19T10:18:18.064Z,94823.00
2023-02-19T10:18:29.396Z,94821.00
2023-02-19T10:18:40.980Z,94819.00
2023-02-19T10:18:52.316Z,94821.00
2023-02-19T10:19:03.884Z,94817.00
2023-02-19T10:19:15.242Z,94817.00
2023-02-19T10:19:26.802Z,94819.00
2023-02-19T10:19:38.126Z,94819.00
2023-02-19T10:19:49.698Z,94817.00
2023-02-19T10:20:01.012Z,94817.00
2023-02-19T10:20:12.613Z,94813.00
2023-02-19T10:20:23.948Z,94813.00
2023-02-19T10:20:35.542Z,94813.00
2023-02-19T10:20:46.885Z,94809.00
2023-02-19T10:20:58.482Z,94807.00
2023-02-19T10:21:10.129Z,94811.00
2023-02-19T10:21:21.849Z,94809.00
2023-02-19T10:21:33.154Z,94809.00
2023-02-19T10:21:44.745Z,94807.00
2023-02-19T10:21:56.073Z,94807.00
2023-02-19T10:22:07.699Z,94805.00
2023-02-19T10:22:19.053Z,94805.00
2023-02-19T10:22:30.650Z,94803.00
2023-02-19T10:22:41.988Z,94803.00
2023-02-19T10:22:53.578Z,94803.00
2023-02-19T10:23:04.926Z,94801.00
2023-02-19T10:23:16.504Z,94799.00
2023-02-19T10:23:27.825Z,94805.00
2023-02-19T10:23:39.402Z,94803.00
2023-02-19T10:23:50.757Z,94801.00
2023-02-19T10:24:02.354Z,94801.00
2023-02-19T10:24:13.718Z,94801.00
2023-02-19T10:24:25.328Z,94801.00
2023-02-19T10:24:38.477Z,94801.00
2023-02-19T10:24:47.818Z,94801.00
2023-02-19T10:24:59.435Z,94803.00
2023-02-19T10:25:10.760Z,94805.00
2023-02-19T10:25:22.354Z,94805.00
2023-02-19T10:25:33.709Z,94807.00
2023-02-19T10:25:45.296Z,94805.00
2023-02-19T10:25:56.631Z,94805.00
2023-02-19T10:26:08.203Z,94805.00
2023-02-19T10:26:19.516Z,94807.00
2023-02-19T10:26:31.098Z,94809.00
2023-02-19T10:26:42.437Z,94809.00
2023-02-19T10:26:54.037Z,94807.00
2023-02-19T10:27:05.380Z,94811.00
2023-02-19T10:27:16.960Z,94809.00
2023-02-19T10:27:28.286Z,94809.00
2023-02-19T10:27:39.901Z,94809.00
2023-02-19T10:27:51.233Z,94809.00
2023-02-19T10:28:02.834Z,94809.00
2023-02-19T10:28:14.174Z,94811.00
2023-02-19T10:28:25.767Z,94811.00
2023-02-19T10:28:37.097Z,94811.00
2023-02-19T10:28:48.678Z,94809.00
2023-02-19T10:29:00.031Z,94809.00
2023-02-19T10:29:11.628Z,94811.00
2023-02-19T10:29:22.962Z,94813.00
2023-02-19T10:29:34.563Z,94811.00
2023-02-19T10:29:45.892Z,94811.00
2023-02-19T10:29:57.480Z,94813.00
2023-02-19T10:30:08.891Z,94809.00
2023-02-19T10:30:20.511Z,94815.00
2023-02-19T10:30:31.933Z,94815.00
2023-02-19T10:30:43.526Z,94813.00
2023-02-19T10:30:54.904Z,94817.00
2023-02-19T10:31:06.493Z,94815.00
2023-02-19T10:31:20.413Z,94819.00
2023-02-19T10:31:30.008Z,94815.00
2023-02-19T10:31:41.769Z,94815.00
2023-02-19T10:31:53.238Z,94817.00
2023-02-19T10:32:04.939Z,94819.00
2023-02-19T10:32:16.266Z,94817.00
2023-02-19T10:32:27.837Z,94819.00
2023-02-19T10:32:39.170Z,94817.00
2023-02-19T10:32:50.924Z,94817.00
2023-02-19T10:33:02.265Z,94819.00
2023-02-19T10:33:13.905Z,94817.00
2023-02-19T10:33:25.214Z,94813.00
2023-02-19T10:33:36.806Z,94817.00
2023-02-19T10:33:48.135Z,94815.00
2023-02-19T10:33:59.713Z,94815.00
2023-02-19T10:34:11.064Z,94815.00
2023-02-19T10:34:22.661Z,94815.00
2023-02-19T10:34:33.997Z,94815.00
2023-02-19T10:34:45.594Z,94815.00
2023-02-19T10:34:56.937Z,94815.00
2023-02-19T10:35:08.537Z,94813.00
2023-02-19T10:35:19.872Z,94811.00
2023-02-19T10:35:31.439Z,94809.00
2023-02-19T10:35:42.756Z,94809.00
2023-02-19T10:35:54.345Z,94807.00
2023-02-19T10:36:05.676Z,94807.00
2023-02-19T10:36:17.271Z,94809.00
2023-02-19T10:36:31.437Z,94809.00
2023-02-19T10:36:39.074Z,94805.00
2023-02-19T10:36:50.392Z,94805.00
2023-02-19T10:37:01.961Z,94805.00
2023-02-19T10:37:13.270Z,94803.00
2023-02-19T10:37:24.874Z,94803.00
2023-02-19T10:37:36.217Z,94801.00
2023-02-19T10:37:47.800Z,94805.00
2023-02-19T10:37:59.144Z,94801.00
2023-02-19T10:38:10.757Z,94803.00
2023-02-19T10:38:22.076Z,94803.00
2023-02-19T10:38:33.686Z,94801.00
2023-02-19T10:38:45.007Z,94801.00
2023-02-19T10:38:56.584Z,94799.00
2023-02-19T10:39:07.907Z,94805.00
2023-02-19T10:39:19.484Z,94803.00
2023-02-19T10:39:30.835Z,94805.00
2023-02-19T10:39:42.421Z,94803.00
2023-02-19T10:39:53.754Z,94803.00
2023-02-19T10:40:05.344Z,94803.00
2023-02-19T10:40:16.674Z,94807.00
2023-02-19T10:40:28.365Z,94805.00
2023-02-19T10:40:39.691Z,94805.00
2023-02-19T10:40:51.250Z,94805.00
2023-02-19T10:41:02.586Z,94801.00
2023-02-19T10:41:14.170Z,94805.00
2023-02-19T10:41:25.502Z,94807.00
2023-02-19T10:41:37.084Z,94805.00
2023-02-19T10:41:48.418Z,94805.00
2023-02-19T10:41:59.988Z,94805.00
2023-02-19T10:42:11.336Z,94805.00
2023-02-19T10:42:22.950Z,94807.00
2023-02-19T10:42:34.300Z,94807.00
2023-02-19T10:42:45.866Z,94807.00
2023-02-19T10:42:57.198Z,94807.00
2023-02-19T10:43:08.808Z,94807.00
2023-02-19T10:43:20.154Z,94807.00
2023-02-19T10:43:31.745Z,94809.00
2023-02-19T10:43:43.068Z,94807.00
2023-02-19T10:43:54.652Z,94807.00
2023-02-19T10:44:05.984Z,94809.00
2023-02-19T10:44:17.596Z,94809.00
2023-02-19T10:44:28.944Z,94809.00
2023-02-19T10:44:40.500Z,94807.00
2023-02-19T10:44:51.842Z,94805.00
2023-02-19T10:45:03.420Z,94809.00
2023-02-19T10:45:14.750Z,94807.00
2023-02-19T10:45:26.327Z,94807.00
2023-02-19T10:45:37.683Z,94805.00
2023-02-19T10:45:49.284Z,94807.00
2023-02-19T10:46:00.609Z,94809.00
2023-02-19T10:46:12.226Z,94811.00
2023-02-19T10:46:23.601Z,94805.00
2023-02-19T10:46:35.216Z,94807.00
2023-02-19T10:46:46.613Z,94805.00
2023-02-19T10:46:58.265Z,94811.00
2023-02-19T10:47:09.580Z,94809.00
2023-02-19T10:47:21.184Z,94809.00
2023-02-19T10:47:32.489Z,94807.00
2023-02-19T10:47:44.076Z,94809.00
2023-02-19T10:47:55.428Z,94807.00
2023-02-19T10:48:07.022Z,94811.00
2023-02-19T10:48:18.340Z,94807.00
2023-02-19T10:48:29.920Z,94807.00